Change the Weather History Date:

Friday, November 2, 2012

  Actual Average Record
Temperature  
Mean Temperature 32 °F -  
Max Temperature 41 °F 48 °F 73 °F (2005)
Min Temperature 24 °F 30 °F 5 °F (1951)
Degree Days  
Heating Degree Days 32    
Moisture  
Dew Point 25 °F    
Average Humidity 68    
Maximum Humidity 81    
Minimum Humidity 57    
Precipitation  
Precipitation 0.00 in - - ()
Sea Level Pressure  
Sea Level Pressure 30.11 in    
Wind  
Wind Speed 5 mph (NE)    
Max Wind Speed 12 mph    
Max Gust Speed -    
Visibility 10 miles    
Events      
Averages and records for this station are not official NWS values.
T = Trace of Precipitation, MM = Missing Value Source: NWS Daily Summary

Daily Weather History Graph

Daily Weather History Graph

Search for Another Location

Airport or City:

Trip Planner

Search our weather history database for the weather conditions in past years. The results will help you decide how hot, cold, wet, or windy it might be!

Date:

Astronomy

Nov. 02, 2012 Rise Set
Actual Time 7:52 AM CDT 6:02 PM CDT
Civil Twilight 7:22 AM CDT 6:32 PM CDT
Nautical Twilight 6:48 AM CDT 7:06 PM CDT
Astronomical Twilight 6:14 AM CDT 7:40 PM CDT
Moon 8:45 PM CDT 11:18 AM CDT
Length of Visible Light 11h 09m
Length of Day
10h 09m
Waning Gibbous, 87% of the Moon is Illuminated
Nov 2
Waning Gibbous
Nov 6
Last Quarter
Nov 13
New
Nov 20
First Quarter
Nov 28
Full

Hourly Weather History & Observations

Time (CDT) Temp. Windchill Dew Point Humidity Pressure Visibility Wind Dir Wind Speed Gust Speed Precip Events Conditions
12:13 AM 30.2 °F 24.3 °F 21.2 °F 69% 30.05 in 10.0 mi North 5.8 mph - N/A   Clear
12:33 AM 30.2 °F 23.4 °F 21.2 °F 69% 30.05 in 10.0 mi NNE 6.9 mph - N/A   Clear
12:52 AM 28.4 °F 22.2 °F 21.2 °F 74% 30.05 in 10.0 mi North 5.8 mph - N/A   Clear
1:13 AM 30.2 °F - 21.2 °F 69% 30.06 in 10.0 mi Calm Calm - N/A   Clear
1:33 AM 28.4 °F 24.6 °F 21.2 °F 74% 30.07 in 10.0 mi NNW 3.5 mph - N/A   Clear
1:53 AM 28.4 °F 23.3 °F 21.2 °F 74% 30.07 in 10.0 mi NNW 4.6 mph - N/A   Clear
2:12 AM 28.4 °F 23.3 °F 21.2 °F 74% 30.07 in 10.0 mi North 4.6 mph - N/A   Clear
2:33 AM 26.6 °F - 19.4 °F 74% 30.08 in 10.0 mi Calm Calm - N/A   Clear
2:53 AM 26.6 °F - 19.4 °F 74% 30.09 in 10.0 mi Calm Calm - N/A   Clear
3:12 AM 28.4 °F - 21.2 °F 74% 30.09 in 10.0 mi Calm Calm - N/A   Clear
3:33 AM 26.6 °F - 19.4 °F 74% 30.08 in 10.0 mi Calm Calm - N/A   Clear
3:53 AM 24.8 °F - 19.4 °F 80% 30.09 in 10.0 mi Calm Calm - N/A   Clear
4:13 AM 26.6 °F 22.6 °F 21.2 °F 80% 30.08 in 10.0 mi NE 3.5 mph - N/A   Clear
4:33 AM 26.6 °F 21.2 °F 19.4 °F 74% 30.08 in 10.0 mi NE 4.6 mph - N/A   Clear
4:52 AM 28.4 °F 21.2 °F 23.0 °F 80% 30.08 in 10.0 mi NE 6.9 mph - N/A   Clear
5:13 AM 30.2 °F 23.4 °F 23.0 °F 75% 30.08 in 10.0 mi NE 6.9 mph - N/A   Clear
5:33 AM 30.2 °F 23.4 °F 23.0 °F 75% 30.08 in 10.0 mi NE 6.9 mph - N/A   Clear
5:53 AM 30.2 °F 22.6 °F 23.0 °F 75% 30.08 in 10.0 mi NE 8.1 mph - N/A   Clear
6:13 AM 30.2 °F 21.9 °F 23.0 °F 75% 30.08 in 10.0 mi NE 9.2 mph - N/A   Clear
6:32 AM 30.2 °F 21.9 °F 23.0 °F 75% 30.09 in 10.0 mi NE 9.2 mph - N/A   Clear
6:53 AM 30.2 °F 21.9 °F 23.0 °F 75% 30.08 in 10.0 mi NE 9.2 mph - N/A   Clear
7:13 AM 30.2 °F 22.6 °F 23.0 °F 75% 30.09 in 10.0 mi NE 8.1 mph - N/A   Clear
7:33 AM 30.2 °F 21.9 °F 23.0 °F 75% 30.09 in 10.0 mi NE 9.2 mph - N/A   Clear
7:53 AM 30.2 °F 24.3 °F 23.0 °F 75% 30.10 in 10.0 mi NE 5.8 mph - N/A   Clear
8:13 AM 30.2 °F 23.4 °F 23.0 °F 75% 30.10 in 10.0 mi NE 6.9 mph - N/A   Clear
8:33 AM 30.2 °F 24.3 °F 23.0 °F 75% 30.11 in 10.0 mi NE 5.8 mph - N/A   Clear
8:53 AM 32.0 °F 26.4 °F 26.6 °F 80% 30.12 in 10.0 mi NE 5.8 mph - N/A   Clear
9:13 AM 32.0 °F 25.6 °F 26.6 °F 80% 30.12 in 10.0 mi ENE 6.9 mph - N/A   Clear
9:33 AM 33.8 °F 27.7 °F 28.4 °F 81% 30.13 in 10.0 mi ENE 6.9 mph - N/A   Clear
9:53 AM 33.8 °F 27.0 °F 26.6 °F 75% 30.13 in 10.0 mi ENE 8.1 mph - N/A   Clear
10:13 AM 33.8 °F 29.6 °F 26.6 °F 75% 30.14 in 10.0 mi East 4.6 mph - N/A   Clear
10:33 AM 33.8 °F 28.6 °F 26.6 °F 75% 30.14 in 10.0 mi East 5.8 mph - N/A   Clear
10:53 AM 33.8 °F 27.0 °F 26.6 °F 75% 30.13 in 10.0 mi ENE 8.1 mph - N/A   Clear
11:13 AM 35.6 °F 27.5 °F 28.4 °F 75% 30.13 in 10.0 mi East 11.5 mph - N/A   Clear
11:33 AM 37.4 °F 31.4 °F 28.4 °F 70% 30.13 in 10.0 mi East 8.1 mph - N/A   Clear
11:53 AM 39.2 °F 33.6 °F 28.4 °F 65% 30.15 in 10.0 mi East 8.1 mph - N/A   Clear
12:13 PM 39.2 °F 33.6 °F 28.4 °F 65% 30.14 in 10.0 mi East 8.1 mph - N/A   Clear
12:33 PM 41.0 °F 36.4 °F 26.6 °F 57% 30.13 in 10.0 mi ENE 6.9 mph - N/A   Clear
12:53 PM 39.2 °F 35.9 °F 26.6 °F 61% 30.14 in 10.0 mi East 4.6 mph - N/A   Scattered Clouds
1:13 PM 41.0 °F 39.0 °F 26.6 °F 57% 30.14 in 10.0 mi ENE 3.5 mph - N/A   Mostly Cloudy
1:33 PM 41.0 °F - 26.6 °F 57% 30.13 in 10.0 mi Calm Calm - N/A   Scattered Clouds
1:52 PM 41.0 °F 39.0 °F 26.6 °F 57% 30.13 in 10.0 mi East 3.5 mph - N/A   Scattered Clouds
2:13 PM 41.0 °F 35.8 °F 26.6 °F 57% 30.11 in 10.0 mi NE 8.1 mph - N/A   Scattered Clouds
2:33 PM 41.0 °F 38.0 °F 26.6 °F 57% 30.12 in 10.0 mi NE 4.6 mph - N/A   Overcast
2:53 PM 41.0 °F 38.0 °F 26.6 °F 57% 30.12 in 10.0 mi East 4.6 mph - N/A   Overcast
3:13 PM 41.0 °F 38.0 °F 26.6 °F 57% 30.11 in 10.0 mi ENE 4.6 mph - N/A   Mostly Cloudy
3:33 PM 41.0 °F 35.8 °F 26.6 °F 57% 30.11 in 10.0 mi NE 8.1 mph - N/A   Overcast
3:53 PM 41.0 °F 35.2 °F 26.6 °F 57% 30.10 in 10.0 mi ENE 9.2 mph - N/A   Mostly Cloudy
4:13 PM 41.0 °F 36.4 °F 26.6 °F 57% 30.10 in 10.0 mi NE 6.9 mph - N/A   Scattered Clouds
4:33 PM 41.0 °F 38.0 °F 26.6 °F 57% 30.11 in 10.0 mi ENE 4.6 mph - N/A   Scattered Clouds
4:53 PM 41.0 °F 36.4 °F 26.6 °F 57% 30.10 in 10.0 mi ENE 6.9 mph - N/A   Clear
5:13 PM 41.0 °F 37.1 °F 26.6 °F 57% 30.10 in 10.0 mi NE 5.8 mph - N/A   Clear
5:33 PM 41.0 °F 38.0 °F 26.6 °F 57% 30.11 in 10.0 mi NE 4.6 mph - N/A   Mostly Cloudy
5:51 PM 41.0 °F 36.4 °F 26.6 °F 57% 30.11 in 10.0 mi NE 6.9 mph - N/A   Overcast
6:13 PM 39.2 °F 34.2 °F 26.6 °F 61% 30.11 in 10.0 mi NE 6.9 mph - N/A   Overcast
6:33 PM 39.2 °F 33.6 °F 26.6 °F 61% 30.11 in 10.0 mi NNE 8.1 mph - N/A   Overcast
6:53 PM 39.2 °F 34.2 °F 28.4 °F 65% 30.13 in 10.0 mi NNE 6.9 mph - N/A   Overcast
7:13 PM 39.2 °F 34.2 °F 28.4 °F 65% 30.12 in 10.0 mi NE 6.9 mph - N/A   Overcast
7:33 PM 39.2 °F 33.6 °F 28.4 °F 65% 30.12 in 10.0 mi NE 8.1 mph - N/A   Overcast
7:53 PM 39.2 °F 35.0 °F 28.4 °F 65% 30.13 in 10.0 mi NE 5.8 mph - N/A   Overcast
8:13 PM 39.2 °F 34.2 °F 28.4 °F 65% 30.13 in 10.0 mi NE 6.9 mph - N/A   Overcast
8:33 PM 39.2 °F 35.0 °F 28.4 °F 65% 30.13 in 10.0 mi NE 5.8 mph - N/A   Overcast
8:53 PM 39.2 °F 35.9 °F 28.4 °F 65% 30.14 in 10.0 mi NNE 4.6 mph - N/A   Overcast
9:13 PM 39.2 °F 35.9 °F 28.4 °F 65% 30.14 in 10.0 mi NE 4.6 mph - N/A   Overcast
9:33 PM 39.2 °F 35.9 °F 28.4 °F 65% 30.14 in 10.0 mi NE 4.6 mph - N/A   Overcast
9:53 PM 39.2 °F 35.9 °F 28.4 °F 65% 30.14 in 10.0 mi NE 4.6 mph - N/A   Overcast
10:33 PM 39.2 °F 35.9 °F 28.4 °F 65% 30.15 in 10.0 mi NE 4.6 mph - N/A   Overcast
10:53 PM 39.2 °F 37.0 °F 28.4 °F 65% 30.16 in 10.0 mi NNE 3.5 mph - N/A   Overcast
11:12 PM 39.2 °F 37.0 °F 28.4 °F 65% 30.16 in 10.0 mi North 3.5 mph - N/A   Overcast
11:33 PM 39.2 °F 37.0 °F 28.4 °F 65% 30.16 in 10.0 mi North 3.5 mph - N/A   Overcast
11:52 PM 39.2 °F - 28.4 °F 65% 30.16 in 10.0 mi Calm Calm - N/A   Overcast